Wetterdaten: aktuell Dienstag, 23.04.2024 07:26
Datum Zeit Temp. A. Feuchte A. Luftdruck Regen Wind Richtung Richtung Taupunkt Windchill Windben
23.04.2024 07:26 -5,9 C 93 % 1021,7 hPa 0,0 l/m 0,9 km/h (0 Bft) N-NW 331 -6,8 C -5,9 C 3,2 km/h (1 Bft)
23.04.2024 07:20 -6,2 C 93 % 1021,8 hPa 0,0 l/m 0,8 km/h (0 Bft) NW 319 -7,1 C -6,2 C 1,6 km/h (1 Bft)
23.04.2024 07:15 -6,4 C 93 % 1021,8 hPa 0,0 l/m 0,3 km/h (0 Bft) NW 319 -7,3 C -6,4 C 1,6 km/h (1 Bft)
23.04.2024 07:10 -6,6 C 93 % 1021,7 hPa 0,0 l/m 0,0 km/h (0 Bft) NW 319 -7,5 C -6,6 C 1,6 km/h (1 Bft)
23.04.2024 07:05 -6,7 C 93 % 1021,9 hPa 0,0 l/m 0,2 km/h (0 Bft) NW 319 -7,6 C -6,7 C 1,6 km/h (1 Bft)
23.04.2024 07:00 -6,8 C 93 % 1021,9 hPa 0,0 l/m 0,1 km/h (0 Bft) NW 319 -7,7 C -6,8 C 1,6 km/h (1 Bft)
23.04.2024 06:55 -7,2 C 93 % 1021,9 hPa 0,0 l/m 0,1 km/h (0 Bft) NW 319 -8,1 C -7,2 C 1,6 km/h (1 Bft)
23.04.2024 06:50 -7,5 C 93 % 1021,9 hPa 0,0 l/m 0,0 km/h (0 Bft) NW 319 -8,4 C -7,5 C 1,6 km/h (1 Bft)
23.04.2024 06:45 -7,8 C 93 % 1021,9 hPa 0,0 l/m 0,0 km/h (0 Bft) NW 319 -8,7 C -7,8 C 1,6 km/h (1 Bft)
23.04.2024 06:40 -7,9 C 93 % 1022,0 hPa 0,0 l/m 0,1 km/h (0 Bft) NW 319 -8,8 C -7,9 C 1,6 km/h (1 Bft)
23.04.2024 06:35 -7,8 C 93 % 1022,1 hPa 0,0 l/m 0,2 km/h (0 Bft) NW 319 -8,7 C -7,8 C 1,6 km/h (1 Bft)
23.04.2024 06:30 -7,9 C 93 % 1022,1 hPa 0,0 l/m 0,0 km/h (0 Bft) NW 319 -8,8 C -7,9 C 0,0 km/h (0 Bft)
23.04.2024 06:25 -7,9 C 93 % 1022,0 hPa 0,0 l/m 0,0 km/h (0 Bft) NW 319 -8,8 C -7,9 C 0,0 km/h (0 Bft)
23.04.2024 06:20 -7,8 C 93 % 1022,1 hPa 0,0 l/m 0,9 km/h (0 Bft) NW 319 -8,7 C -7,8 C 3,2 km/h (1 Bft)
23.04.2024 06:15 -7,8 C 93 % 1022,0 hPa 0,0 l/m 0,6 km/h (0 Bft) NW 309 -8,7 C -7,8 C 3,2 km/h (1 Bft)
23.04.2024 06:10 -8,0 C 93 % 1022,1 hPa 0,0 l/m 0,0 km/h (0 Bft) NW 309 -8,9 C -8,0 C 0,0 km/h (0 Bft)
23.04.2024 06:05 -8,1 C 93 % 1022,1 hPa 0,0 l/m 0,0 km/h (0 Bft) NW 309 -9,0 C -8,1 C 0,0 km/h (0 Bft)
23.04.2024 06:00 -7,9 C 93 % 1022,0 hPa 0,0 l/m 0,0 km/h (0 Bft) NW 309 -8,8 C -7,9 C 0,0 km/h (0 Bft)
23.04.2024 05:55 -8,0 C 92 % 1022,1 hPa 0,0 l/m 0,0 km/h (0 Bft) NW 309 -9,1 C -8,0 C 0,0 km/h (0 Bft)
23.04.2024 05:50 -7,8 C 93 % 1022,0 hPa 0,0 l/m 0,1 km/h (0 Bft) NW 309 -8,7 C -7,8 C 1,6 km/h (1 Bft)
23.04.2024 05:45 -7,8 C 93 % 1022,0 hPa 0,0 l/m 0,3 km/h (0 Bft) NW 309 -8,7 C -7,8 C 1,6 km/h (1 Bft)
23.04.2024 05:40 -7,9 C 93 % 1022,0 hPa 0,0 l/m 0,0 km/h (0 Bft) NW 309 -8,8 C -7,9 C 0,0 km/h (0 Bft)
23.04.2024 05:35 -7,8 C 92 % 1022,0 hPa 0,0 l/m 0,0 km/h (0 Bft) NW 309 -8,9 C -7,8 C 0,0 km/h (0 Bft)
23.04.2024 05:30 -7,8 C 93 % 1022,0 hPa 0,0 l/m 0,0 km/h (0 Bft) NW 309 -8,7 C -7,8 C 0,0 km/h (0 Bft)
23.04.2024 05:25 -7,7 C 93 % 1022,1 hPa 0,0 l/m 0,0 km/h (0 Bft) NW 309 -8,6 C -7,7 C 0,0 km/h (0 Bft)
23.04.2024 05:20 -7,7 C 93 % 1022,1 hPa 0,0 l/m 0,1 km/h (0 Bft) NW 309 -8,6 C -7,7 C 1,6 km/h (1 Bft)
23.04.2024 05:15 -7,7 C 93 % 1022,1 hPa 0,0 l/m 0,7 km/h (0 Bft) NW 309 -8,6 C -7,7 C 3,2 km/h (1 Bft)
23.04.2024 05:10 -7,9 C 93 % 1022,1 hPa 0,0 l/m 0,0 km/h (0 Bft) NW 308 -8,8 C -7,9 C 0,0 km/h (0 Bft)
23.04.2024 05:05 -7,9 C 92 % 1022,3 hPa 0,0 l/m 0,0 km/h (0 Bft) NW 308 -9,0 C -7,9 C 1,6 km/h (1 Bft)
23.04.2024 05:00 -7,7 C 93 % 1022,3 hPa 0,0 l/m 0,7 km/h (0 Bft) NW 308 -8,6 C -7,7 C 3,2 km/h (1 Bft)
23.04.2024 04:55 -7,7 C 93 % 1022,3 hPa 0,0 l/m 0,0 km/h (0 Bft) W 273 -8,6 C -7,7 C 1,6 km/h (1 Bft)
23.04.2024 04:50 -7,7 C 92 % 1022,4 hPa 0,0 l/m 0,0 km/h (0 Bft) W 273 -8,8 C -7,7 C 1,6 km/h (1 Bft)
23.04.2024 04:45 -7,6 C 93 % 1022,4 hPa 0,0 l/m 0,4 km/h (0 Bft) W 273 -8,5 C -7,6 C 1,6 km/h (1 Bft)
23.04.2024 04:40 -7,6 C 93 % 1022,3 hPa 0,0 l/m 0,0 km/h (0 Bft) W 273 -8,5 C -7,6 C 0,0 km/h (0 Bft)
23.04.2024 04:35 -7,6 C 93 % 1022,5 hPa 0,0 l/m 0,2 km/h (0 Bft) W 273 -8,5 C -7,6 C 1,6 km/h (1 Bft)
23.04.2024 04:30 -7,5 C 93 % 1022,3 hPa 0,0 l/m 0,1 km/h (0 Bft) W 273 -8,4 C -7,5 C 1,6 km/h (1 Bft)
23.04.2024 04:25 -7,4 C 92 % 1022,4 hPa 0,0 l/m 0,2 km/h (0 Bft) W 273 -8,5 C -7,4 C 3,2 km/h (1 Bft)
23.04.2024 04:20 -7,3 C 93 % 1022,4 hPa 0,0 l/m 1,5 km/h (1 Bft) W 273 -8,2 C -7,3 C 3,2 km/h (1 Bft)
23.04.2024 04:15 -7,3 C 92 % 1022,4 hPa 0,0 l/m 0,7 km/h (0 Bft) S-SW 212 -8,4 C -7,3 C 3,2 km/h (1 Bft)
23.04.2024 04:10 -7,3 C 92 % 1022,5 hPa 0,0 l/m 0,6 km/h (0 Bft) S-SW 200 -8,4 C -7,3 C 1,6 km/h (1 Bft)
23.04.2024 04:05 -7,3 C 92 % 1022,6 hPa 0,0 l/m 0,4 km/h (0 Bft) S-SW 200 -8,4 C -7,3 C 1,6 km/h (1 Bft)
23.04.2024 04:00 -7,4 C 92 % 1022,6 hPa 0,0 l/m 0,1 km/h (0 Bft) S-SW 200 -8,5 C -7,4 C 1,6 km/h (1 Bft)
23.04.2024 03:55 -7,3 C 92 % 1022,6 hPa 0,0 l/m 0,2 km/h (0 Bft) S-SW 200 -8,4 C -7,3 C 1,6 km/h (1 Bft)
23.04.2024 03:50 -7,3 C 92 % 1022,6 hPa 0,0 l/m 0,3 km/h (0 Bft) S-SW 200 -8,4 C -7,3 C 3,2 km/h (1 Bft)
23.04.2024 03:45 -7,4 C 92 % 1022,5 hPa 0,0 l/m 0,8 km/h (0 Bft) S-SW 201 -8,5 C -7,4 C 4,8 km/h (1 Bft)
23.04.2024 03:40 -7,1 C 92 % 1022,7 hPa 0,0 l/m 0,0 km/h (0 Bft) S-SW 196 -8,2 C -7,1 C 0,0 km/h (0 Bft)
23.04.2024 03:35 -7,1 C 92 % 1022,7 hPa 0,0 l/m 0,0 km/h (0 Bft) S-SW 196 -8,2 C -7,1 C 0,0 km/h (0 Bft)
23.04.2024 03:30 -7,1 C 92 % 1022,7 hPa 0,0 l/m 0,0 km/h (0 Bft) S-SW 196 -8,2 C -7,1 C 1,6 km/h (1 Bft)
23.04.2024 03:25 -7,1 C 92 % 1022,7 hPa 0,0 l/m 0,0 km/h (0 Bft) S-SW 196 -8,2 C -7,1 C 0,0 km/h (0 Bft)
23.04.2024 03:20 -7,1 C 92 % 1022,8 hPa 0,0 l/m 0,0 km/h (0 Bft) S-SW 196 -8,2 C -7,1 C 1,6 km/h (1 Bft)
23.04.2024 03:15 -6,8 C 92 % 1022,7 hPa 0,0 l/m 0,4 km/h (0 Bft) S-SW 196 -7,9 C -6,8 C 3,2 km/h (1 Bft)
23.04.2024 03:10 -6,7 C 92 % 1022,7 hPa 0,0 l/m 0,0 km/h (0 Bft) S-SW 196 -7,8 C -6,7 C 0,0 km/h (0 Bft)
23.04.2024 03:05 -6,7 C 92 % 1022,6 hPa 0,0 l/m 0,3 km/h (0 Bft) S-SW 196 -7,8 C -6,7 C 1,6 km/h (1 Bft)
23.04.2024 03:00 -6,9 C 91 % 1022,6 hPa 0,0 l/m 1,2 km/h (1 Bft) S-SW 196 -8,1 C -6,9 C 3,2 km/h (1 Bft)
23.04.2024 02:55 -6,6 C 92 % 1022,7 hPa 0,0 l/m 0,1 km/h (0 Bft) S 185 -7,7 C -6,6 C 1,6 km/h (1 Bft)
23.04.2024 02:50 -6,6 C 92 % 1022,7 hPa 0,0 l/m 0,2 km/h (0 Bft) S 185 -7,7 C -6,6 C 1,6 km/h (1 Bft)
23.04.2024 02:45 -6,5 C 92 % 1022,8 hPa 0,0 l/m 0,3 km/h (0 Bft) S 185 -7,6 C -6,5 C 1,6 km/h (1 Bft)
23.04.2024 02:40 -6,5 C 91 % 1022,8 hPa 0,0 l/m 0,0 km/h (0 Bft) S 185 -7,7 C -6,5 C 0,0 km/h (0 Bft)
23.04.2024 02:35 -6,3 C 92 % 1022,8 hPa 0,0 l/m 0,1 km/h (0 Bft) S 185 -7,4 C -6,3 C 1,6 km/h (1 Bft)
23.04.2024 02:30 -6,3 C 92 % 1022,8 hPa 0,0 l/m 1,0 km/h (0 Bft) S 185 -7,4 C -6,3 C 3,2 km/h (1 Bft)
23.04.2024 02:25 -6,3 C 92 % 1022,9 hPa 0,0 l/m 0,9 km/h (0 Bft) S-SO 166 -7,4 C -6,3 C 4,8 km/h (1 Bft)
23.04.2024 02:20 -6,3 C 91 % 1022,9 hPa 0,0 l/m 1,3 km/h (1 Bft) S 179 -7,5 C -6,3 C 3,2 km/h (1 Bft)
23.04.2024 02:15 -6,1 C 91 % 1023,0 hPa 0,0 l/m 0,3 km/h (0 Bft) S 179 -7,3 C -6,1 C 1,6 km/h (1 Bft)
23.04.2024 02:10 -6,0 C 91 % 1023,1 hPa 0,0 l/m 0,2 km/h (0 Bft) S 179 -7,2 C -6,0 C 1,6 km/h (1 Bft)
23.04.2024 02:05 -5,9 C 91 % 1023,2 hPa 0,0 l/m 0,6 km/h (0 Bft) S 179 -7,1 C -5,9 C 3,2 km/h (1 Bft)
23.04.2024 02:00 -5,9 C 91 % 1023,1 hPa 0,0 l/m 0,7 km/h (0 Bft) S 179 -7,1 C -5,9 C 3,2 km/h (1 Bft)
23.04.2024 01:55 -6,0 C 91 % 1023,1 hPa 0,0 l/m 1,0 km/h (0 Bft) S 179 -7,2 C -6,0 C 4,8 km/h (1 Bft)
23.04.2024 01:50 -6,0 C 91 % 1023,1 hPa 0,0 l/m 1,0 km/h (0 Bft) S 178 -7,2 C -6,0 C 4,8 km/h (1 Bft)
23.04.2024 01:45 -6,0 C 91 % 1023,2 hPa 0,0 l/m 0,3 km/h (0 Bft) S-SO 163 -7,2 C -6,0 C 1,6 km/h (1 Bft)
23.04.2024 01:40 -6,1 C 91 % 1023,2 hPa 0,0 l/m 0,3 km/h (0 Bft) S-SO 163 -7,3 C -6,1 C 3,2 km/h (1 Bft)
23.04.2024 01:35 -6,0 C 91 % 1023,2 hPa 0,0 l/m 0,5 km/h (0 Bft) S-SO 163 -7,2 C -6,0 C 3,2 km/h (1 Bft)
23.04.2024 01:30 -5,9 C 91 % 1023,2 hPa 0,0 l/m 0,6 km/h (0 Bft) S-SO 163 -7,1 C -5,9 C 3,2 km/h (1 Bft)
23.04.2024 01:25 -5,9 C 91 % 1023,3 hPa 0,0 l/m 0,0 km/h (0 Bft) S-SO 163 -7,1 C -5,9 C 1,6 km/h (1 Bft)
23.04.2024 01:20 -5,8 C 91 % 1023,3 hPa 0,0 l/m 0,1 km/h (0 Bft) S-SO 163 -7,0 C -5,8 C 1,6 km/h (1 Bft)
23.04.2024 01:15 -5,8 C 90 % 1023,3 hPa 0,0 l/m 0,0 km/h (0 Bft) S-SO 163 -7,2 C -5,8 C 0,0 km/h (0 Bft)
23.04.2024 01:10 -5,6 C 91 % 1023,4 hPa 0,0 l/m 0,1 km/h (0 Bft) S-SO 163 -6,8 C -5,6 C 1,6 km/h (1 Bft)
23.04.2024 01:05 -5,5 C 91 % 1023,5 hPa 0,0 l/m 0,1 km/h (0 Bft) S-SO 163 -6,7 C -5,5 C 1,6 km/h (1 Bft)
23.04.2024 01:00 -5,5 C 90 % 1023,5 hPa 0,0 l/m 0,0 km/h (0 Bft) S-SO 163 -6,9 C -5,5 C 0,0 km/h (0 Bft)
23.04.2024 00:55 -5,3 C 90 % 1023,6 hPa 0,0 l/m 0,0 km/h (0 Bft) S-SO 163 -6,7 C -5,3 C 0,0 km/h (0 Bft)
23.04.2024 00:50 -5,2 C 90 % 1023,7 hPa 0,0 l/m 0,0 km/h (0 Bft) S-SO 163 -6,6 C -5,2 C 0,0 km/h (0 Bft)
23.04.2024 00:45 -5,1 C 90 % 1023,6 hPa 0,0 l/m 0,1 km/h (0 Bft) S-SO 163 -6,5 C -5,1 C 1,6 km/h (1 Bft)
23.04.2024 00:40 -5,1 C 90 % 1023,6 hPa 0,0 l/m 0,1 km/h (0 Bft) S-SO 163 -6,5 C -5,1 C 1,6 km/h (1 Bft)
23.04.2024 00:35 -5,0 C 90 % 1023,5 hPa 0,0 l/m 0,0 km/h (0 Bft) S-SO 163 -6,4 C -5,0 C 0,0 km/h (0 Bft)
23.04.2024 00:30 -4,8 C 90 % 1023,6 hPa 0,0 l/m 1,0 km/h (0 Bft) S-SO 163 -6,2 C -4,8 C 4,8 km/h (1 Bft)
23.04.2024 00:25 -4,8 C 91 % 1023,7 hPa 0,0 l/m 1,6 km/h (1 Bft) S-SO 166 -6,0 C -4,8 C 4,8 km/h (1 Bft)
23.04.2024 00:20 -4,9 C 91 % 1023,7 hPa 0,0 l/m 1,5 km/h (1 Bft) S-SO 161 -6,1 C -4,9 C 8,0 km/h (2 Bft)
23.04.2024 00:15 -4,8 C 91 % 1023,7 hPa 0,0 l/m 0,9 km/h (0 Bft) S-SO 155 -6,0 C -4,8 C 3,2 km/h (1 Bft)
23.04.2024 00:11 -4,8 C 91 % 1023,7 hPa 0,0 l/m 0,9 km/h (0 Bft) SO 140 -6,0 C -4,8 C 4,8 km/h (1 Bft)
23.04.2024 00:05 -4,8 C 91 % 1023,6 hPa 0,0 l/m 0,2 km/h (0 Bft) O-SO 116 -6,0 C -4,8 C 3,2 km/h (1 Bft)
23.04.2024 00:00 -4,7 C 90 % 1023,6 hPa 0,0 l/m 0,5 km/h (0 Bft) O-SO 116 -6,1 C -4,7 C 3,2 km/h (1 Bft)
22.04.2024 23:55 -4,6 C 90 % 1023,6 hPa 0,0 l/m 0,1 km/h (0 Bft) O-NO 63 -6,0 C -4,6 C 1,6 km/h (1 Bft)
22.04.2024 23:50 -4,4 C 90 % 1023,6 hPa 0,0 l/m 0,0 km/h (0 Bft) O-NO 63 -5,8 C -4,4 C 0,0 km/h (0 Bft)
22.04.2024 23:45 -4,3 C 90 % 1023,6 hPa 0,0 l/m 0,0 km/h (0 Bft) O-NO 63 -5,7 C -4,3 C 0,0 km/h (0 Bft)
22.04.2024 23:40 -4,2 C 90 % 1023,6 hPa 0,0 l/m 0,0 km/h (0 Bft) O-NO 63 -5,6 C -4,2 C 0,0 km/h (0 Bft)
22.04.2024 23:35 -4,1 C 89 % 1023,6 hPa 0,0 l/m 0,0 km/h (0 Bft) O-NO 63 -5,6 C -4,1 C 1,6 km/h (1 Bft)
22.04.2024 23:30 -3,9 C 90 % 1023,6 hPa 0,0 l/m 0,0 km/h (0 Bft) O-NO 63 -5,3 C -3,9 C 0,0 km/h (0 Bft)
22.04.2024 23:25 -3,9 C 89 % 1023,7 hPa 0,0 l/m 0,0 km/h (0 Bft) O-NO 63 -5,4 C -3,9 C 0,0 km/h (0 Bft)
22.04.2024 23:20 -3,7 C 89 % 1023,8 hPa 0,0 l/m 0,0 km/h (0 Bft) O-NO 63 -5,2 C -3,7 C 1,6 km/h (1 Bft)
22.04.2024 23:15 -3,7 C 89 % 1023,8 hPa 0,0 l/m 0,1 km/h (0 Bft) O-NO 63 -5,2 C -3,7 C 1,6 km/h (1 Bft)
22.04.2024 23:10 -3,8 C 89 % 1023,8 hPa 0,0 l/m 0,6 km/h (0 Bft) O-NO 63 -5,3 C -3,8 C 3,2 km/h (1 Bft)
_ Min-Zeit 06:05 13:35 07:10 - 21:45 - - 05:55 06:05 21:50
Minimum _ -8,1 C 62 % 1021,7 hPa - 0,0 km/h (0 Bft) - - -9,1 C -8,1 C 0,0 km/h (0 Bft)
_ Max-Zeit 15:30 08:00 12:25 08:00 15:30 - - 09:25 15:27 09:46
Maximum _ 2,0 C 95 % 1023,9 hPa 0,0 l/m 9,2 km/h
N (2 Bft)
- - -2,4 C 1,8 C 19,3 km/h
O-NO (3 Bft)
Durchschnitt _ -2,6 C 84 % 1023,2 hPa #0,0 l/m 2,1 km/h (1 Bft) NO - -5,1 C -2,6 C 6,0 km/h (2 Bft)